createdAt,value
2023-03-06T00:02:01.225Z,1.17
2023-03-06T00:07:06.664Z,3.43
2023-03-06T00:12:12.202Z,1.67
2023-03-06T00:17:17.619Z,2.33
2023-03-06T00:22:23.067Z,4.00
2023-03-06T00:27:28.518Z,2.90
2023-03-06T00:32:34.001Z,2.10
2023-03-06T00:37:40.701Z,4.60
2023-03-06T00:42:46.995Z,1.93
2023-03-06T00:47:52.656Z,1.30
2023-03-06T00:52:58.117Z,1.60
2023-03-06T00:58:03.502Z,1.30
2023-03-06T01:03:09.072Z,1.80
2023-03-06T01:08:14.537Z,1.60
2023-03-06T01:13:20.069Z,2.07
2023-03-06T01:18:25.582Z,1.07
2023-03-06T01:23:31.093Z,3.50
2023-03-06T01:28:39.282Z,1.70
2023-03-06T01:33:44.925Z,1.13
2023-03-06T01:38:51.395Z,2.73
2023-03-06T01:43:57.415Z,2.73
2023-03-06T01:49:07.009Z,1.93
2023-03-06T01:54:15.432Z,1.90
2023-03-06T01:59:22.814Z,1.97
2023-03-06T02:04:28.853Z,2.67
2023-03-06T02:09:36.528Z,1.00
2023-03-06T02:14:43.709Z,3.57
2023-03-06T02:19:57.828Z,1.53
2023-03-06T02:25:09.453Z,2.87
2023-03-06T02:30:17.707Z,1.93
2023-03-06T02:35:26.426Z,1.97
2023-03-06T02:40:32.410Z,1.60
2023-03-06T02:45:47.509Z,4.77
2023-03-06T02:50:53.075Z,3.00
2023-03-06T02:55:59.614Z,2.97
2023-03-06T03:01:05.926Z,2.63
2023-03-06T03:06:12.211Z,1.77
2023-03-06T03:11:18.849Z,2.17
2023-03-06T03:16:25.196Z,4.43
2023-03-06T03:21:30.772Z,5.87
2023-03-06T03:26:36.520Z,4.70
2023-03-06T03:31:43.731Z,3.67
2023-03-06T03:36:49.390Z,4.60
2023-03-06T03:41:55.178Z,3.80
2023-03-06T03:47:00.961Z,2.80
2023-03-06T03:52:08.170Z,4.93
2023-03-06T03:57:14.564Z,2.33
2023-03-06T04:02:25.644Z,2.63
2023-03-06T04:07:35.955Z,3.27
2023-03-06T04:12:41.489Z,3.60
2023-03-06T04:17:48.371Z,3.97
2023-03-06T04:22:55.555Z,2.87
2023-03-06T04:28:01.362Z,1.97
2023-03-06T04:33:07.764Z,3.20
2023-03-06T04:38:14.165Z,3.00
2023-03-06T04:43:19.683Z,2.50
2023-03-06T04:48:25.163Z,3.90
2023-03-06T04:53:30.618Z,2.40
2023-03-06T04:58:36.242Z,2.00
2023-03-06T05:03:41.958Z,1.63
2023-03-06T05:08:47.422Z,1.60
2023-03-06T05:13:53.245Z,2.57
2023-03-06T05:18:59.034Z,2.60
2023-03-06T05:24:04.681Z,1.90
2023-03-06T05:29:10.136Z,1.27
2023-03-06T05:34:18.863Z,3.07
2023-03-06T05:39:24.404Z,2.03
2023-03-06T05:44:34.576Z,2.17
2023-03-06T05:49:40.101Z,2.73
2023-03-06T05:54:45.683Z,0.70
2023-03-06T05:59:52.103Z,3.00
2023-03-06T06:04:57.654Z,1.20
2023-03-06T06:10:04.061Z,2.30
2023-03-06T06:15:11.874Z,1.33
2023-03-06T06:20:18.040Z,1.60
2023-03-06T06:25:23.565Z,3.87
2023-03-06T06:30:29.023Z,2.00
2023-03-06T06:35:38.576Z,2.73
2023-03-06T06:40:49.305Z,2.37
2023-03-06T06:45:52.149Z,2.27
2023-03-06T06:50:59.067Z,3.03
2023-03-06T06:56:04.852Z,1.00
2023-03-06T07:01:12.498Z,1.33
2023-03-06T07:06:18.164Z,2.10
2023-03-06T07:11:23.846Z,2.57
2023-03-06T07:16:29.483Z,2.37
2023-03-06T07:21:35.206Z,3.17
2023-03-06T07:26:40.840Z,1.47
2023-03-06T07:31:46.508Z,1.70
2023-03-06T07:36:52.091Z,1.13
2023-03-06T07:41:58.779Z,1.83
2023-03-06T07:47:05.161Z,4.07
2023-03-06T07:52:10.944Z,2.83
2023-03-06T07:57:17.057Z,5.90
2023-03-06T08:02:22.729Z,6.67
2023-03-06T08:07:30.013Z,4.93
2023-03-06T08:12:35.590Z,6.20
2023-03-06T08:17:41.407Z,6.50
2023-03-06T08:22:47.751Z,8.97
2023-03-06T08:27:53.226Z,9.63
2023-03-06T08:32:58.736Z,7.90
2023-03-06T08:38:04.193Z,8.57
2023-03-06T08:43:14.322Z,6.87
2023-03-06T08:48:19.919Z,6.23
2023-03-06T08:53:40.448Z,6.57
2023-03-06T08:58:33.226Z,6.33
2023-03-06T09:03:38.605Z,5.63
2023-03-06T09:08:44.917Z,6.40
2023-03-06T09:13:50.976Z,6.73
2023-03-06T09:18:57.968Z,12.80
2023-03-06T09:24:04.089Z,8.87
2023-03-06T09:29:09.881Z,14.23
2023-03-06T09:34:15.446Z,13.93
2023-03-06T09:39:20.862Z,12.77
2023-03-06T09:44:32.308Z,10.07
2023-03-06T09:50:00.266Z,7.77
2023-03-06T09:55:21.592Z,10.90
2023-03-06T10:00:35.913Z,15.30
2023-03-06T10:05:44.529Z,12.47
2023-03-06T10:11:05.308Z,11.70
2023-03-06T10:16:25.613Z,6.43
2023-03-06T10:21:43.822Z,9.20
2023-03-06T10:27:12.239Z,7.40
2023-03-06T10:32:48.314Z,6.23
2023-03-06T10:37:47.956Z,6.50
2023-03-06T10:43:09.350Z,5.63
2023-03-06T10:48:14.724Z,4.77
2023-03-06T10:53:33.066Z,3.67
2023-03-06T10:58:38.429Z,7.73
2023-03-06T11:03:43.889Z,6.67
2023-03-06T11:08:49.424Z,4.97
2023-03-06T11:13:59.905Z,4.90
2023-03-06T11:19:07.952Z,3.77
2023-03-06T11:24:21.574Z,3.90
2023-03-06T11:29:35.279Z,5.40
2023-03-06T11:34:59.374Z,4.37
2023-03-06T11:40:33.245Z,3.03
2023-03-06T11:45:47.215Z,2.60
2023-03-06T11:50:56.204Z,3.77
2023-03-06T11:56:23.005Z,3.50
2023-03-06T12:01:34.261Z,2.60
2023-03-06T12:07:07.973Z,3.33
2023-03-06T12:12:22.346Z,2.10
2023-03-06T12:17:47.626Z,4.13
2023-03-06T12:22:57.653Z,4.40
2023-03-06T12:28:18.606Z,2.37
2023-03-06T12:33:40.980Z,1.77
2023-03-06T12:38:50.933Z,3.17
2023-03-06T12:44:23.673Z,3.73
2023-03-06T12:49:34.158Z,4.87
2023-03-06T12:54:42.142Z,2.47
2023-03-06T12:59:50.053Z,7.27
2023-03-06T13:05:13.503Z,2.63
2023-03-06T13:10:36.717Z,2.47
2023-03-06T13:15:47.288Z,6.77
2023-03-06T13:20:54.718Z,1.23
2023-03-06T13:26:12.304Z,2.07
2023-03-06T13:31:31.882Z,2.60
2023-03-06T13:36:39.843Z,2.30
2023-03-06T13:41:59.762Z,2.57
2023-03-06T13:47:23.435Z,1.77
2023-03-06T13:52:41.031Z,1.27
2023-03-06T13:57:49.521Z,1.77
2023-03-06T14:03:26.615Z,2.20
2023-03-06T14:08:35.570Z,3.23
2023-03-06T14:13:48.439Z,4.77
2023-03-06T14:18:56.832Z,1.33
2023-03-06T14:24:05.163Z,3.40
2023-03-06T14:29:25.324Z,1.67
2023-03-06T14:34:33.883Z,2.00
2023-03-06T14:39:44.988Z,1.93
2023-03-06T14:44:52.942Z,2.23
2023-03-06T14:50:21.840Z,2.63
2023-03-06T14:55:29.516Z,2.40
2023-03-06T15:00:38.451Z,3.33
2023-03-06T15:05:46.655Z,2.70
2023-03-06T15:11:01.599Z,1.17
2023-03-06T15:16:10.155Z,3.17
2023-03-06T15:21:21.367Z,2.00
2023-03-06T15:26:33.234Z,1.83
2023-03-06T15:31:46.871Z,2.50
2023-03-06T15:36:55.918Z,3.83
2023-03-06T15:42:22.546Z,2.47
2023-03-06T15:47:28.054Z,2.10
2023-03-06T15:52:33.511Z,2.50
2023-03-06T15:57:40.890Z,0.80
2023-03-06T16:02:47.328Z,3.03
2023-03-06T16:07:53.006Z,1.47
2023-03-06T16:13:04.166Z,2.10
2023-03-06T16:18:12.680Z,2.97
2023-03-06T16:23:18.637Z,2.53
2023-03-06T16:28:24.075Z,6.47
2023-03-06T16:33:29.633Z,5.17
2023-03-06T16:38:35.098Z,4.17
2023-03-06T16:43:40.662Z,4.00
2023-03-06T16:48:46.796Z,5.50
2023-03-06T16:53:52.314Z,6.90
2023-03-06T16:58:57.807Z,5.93
2023-03-06T17:04:03.702Z,3.27
2023-03-06T17:09:10.938Z,7.20
2023-03-06T17:14:16.688Z,3.40
2023-03-06T17:19:22.307Z,2.63
2023-03-06T17:24:28.337Z,2.60
2023-03-06T17:29:33.925Z,3.10
2023-03-06T17:34:39.948Z,1.03
2023-03-06T17:39:45.580Z,3.73
2023-03-06T17:44:52.115Z,3.53
2023-03-06T17:49:57.588Z,3.10
2023-03-06T17:55:03.178Z,6.10
2023-03-06T18:00:11.025Z,3.33
2023-03-06T18:05:21.964Z,3.07
2023-03-06T18:10:27.566Z,2.63
2023-03-06T18:15:32.944Z,2.57
2023-03-06T18:20:46.983Z,3.00
2023-03-06T18:25:52.741Z,3.27
2023-03-06T18:30:58.252Z,3.57
2023-03-06T18:36:04.918Z,4.93
2023-03-06T18:41:11.312Z,3.77
2023-03-06T18:46:16.692Z,2.87
2023-03-06T18:51:22.160Z,3.33
2023-03-06T18:56:27.795Z,3.80
2023-03-06T19:01:33.853Z,4.73
2023-03-06T19:06:40.914Z,5.33
2023-03-06T19:11:47.119Z,6.13
2023-03-06T19:16:52.744Z,3.70
2023-03-06T19:22:02.074Z,2.87
2023-03-06T19:27:07.528Z,6.47
2023-03-06T19:32:13.423Z,4.90
2023-03-06T19:37:19.389Z,2.97
2023-03-06T19:42:24.842Z,5.30
2023-03-06T19:47:30.248Z,5.00
2023-03-06T19:52:39.031Z,4.40
2023-03-06T19:57:45.425Z,5.57
2023-03-06T20:02:50.884Z,3.87
2023-03-06T20:07:56.336Z,3.23
2023-03-06T20:13:01.891Z,5.33
2023-03-06T20:18:07.501Z,6.43
2023-03-06T20:23:16.249Z,5.20
2023-03-06T20:28:20.946Z,4.60
2023-03-06T20:33:27.323Z,4.40
2023-03-06T20:38:32.922Z,5.30
2023-03-06T20:43:38.422Z,5.20
2023-03-06T20:48:44.724Z,3.03
2023-03-06T20:53:51.478Z,4.43
2023-03-06T20:58:58.725Z,2.63
2023-03-06T21:04:05.075Z,3.63
2023-03-06T21:09:11.453Z,1.90
2023-03-06T21:14:17.398Z,4.90
2023-03-06T21:19:22.977Z,4.20
2023-03-06T21:24:28.598Z,2.40
2023-03-06T21:29:34.191Z,2.03
2023-03-06T21:34:39.718Z,2.63
2023-03-06T21:39:45.405Z,5.23
2023-03-06T21:44:50.814Z,3.63
2023-03-06T21:49:56.380Z,2.63
2023-03-06T21:55:01.904Z,5.07
2023-03-06T22:00:12.943Z,4.93
2023-03-06T22:05:18.831Z,6.00
2023-03-06T22:10:24.217Z,4.17
2023-03-06T22:15:31.292Z,4.10
2023-03-06T22:20:36.907Z,4.83
2023-03-06T22:25:42.560Z,4.87
2023-03-06T22:30:48.069Z,2.57
2023-03-06T22:35:53.664Z,6.37
2023-03-06T22:41:00.134Z,5.20
2023-03-06T22:46:17.339Z,3.87
2023-03-06T22:51:23.393Z,5.07
2023-03-06T22:56:28.863Z,2.67
2023-03-06T23:01:36.298Z,4.73
2023-03-06T23:06:43.614Z,6.63
2023-03-06T23:11:52.172Z,6.30
2023-03-06T23:17:16.058Z,5.07
2023-03-06T23:22:39.728Z,5.60
2023-03-06T23:28:03.626Z,6.30
2023-03-06T23:33:10.065Z,4.57
2023-03-06T23:38:15.999Z,7.33
2023-03-06T23:43:22.852Z,5.50
2023-03-06T23:48:28.848Z,6.47
2023-03-06T23:53:34.213Z,5.17
2023-03-06T23:58:40.038Z,6.00
